sensor_id;sensor_type;location;lat;lon;timestamp;P1;durP1;ratioP1;P2;durP2;ratioP2
15673;SDS011;7937;48.090;16.212;2022-10-26T00:01:30;3.93;;;0.70;;
15673;SDS011;7937;48.090;16.212;2022-10-26T00:04:32;0.87;;;0.50;;
15673;SDS011;7937;48.090;16.212;2022-10-26T00:07:34;1.90;;;0.60;;
15673;SDS011;7937;48.090;16.212;2022-10-26T00:10:37;3.13;;;0.80;;
15673;SDS011;7937;48.090;16.212;2022-10-26T00:13:40;2.83;;;0.40;;
15673;SDS011;7937;48.090;16.212;2022-10-26T00:16:42;2.33;;;0.63;;
15673;SDS011;7937;48.090;16.212;2022-10-26T00:19:44;1.23;;;0.50;;
15673;SDS011;7937;48.090;16.212;2022-10-26T00:22:46;2.40;;;1.27;;
15673;SDS011;7937;48.090;16.212;2022-10-26T00:25:54;2.43;;;0.97;;
15673;SDS011;7937;48.090;16.212;2022-10-26T00:28:57;8.37;;;0.93;;
15673;SDS011;7937;48.090;16.212;2022-10-26T00:31:59;0.80;;;0.80;;
15673;SDS011;7937;48.090;16.212;2022-10-26T00:35:01;0.40;;;0.40;;
15673;SDS011;7937;48.090;16.212;2022-10-26T00:38:23;1.70;;;0.67;;
15673;SDS011;7937;48.090;16.212;2022-10-26T00:41:27;2.37;;;0.70;;
15673;SDS011;7937;48.090;16.212;2022-10-26T00:47:52;3.80;;;0.50;;
15673;SDS011;7937;48.090;16.212;2022-10-26T00:50:59;0.73;;;0.40;;
15673;SDS011;7937;48.090;16.212;2022-10-26T00:54:08;3.13;;;0.90;;
15673;SDS011;7937;48.090;16.212;2022-10-26T00:57:14;1.03;;;0.50;;
15673;SDS011;7937;48.090;16.212;2022-10-26T01:00:18;1.27;;;0.40;;
15673;SDS011;7937;48.090;16.212;2022-10-26T01:03:21;2.20;;;0.50;;
15673;SDS011;7937;48.090;16.212;2022-10-26T01:06:29;1.33;;;0.60;;
15673;SDS011;7937;48.090;16.212;2022-10-26T01:09:33;0.70;;;0.60;;
15673;SDS011;7937;48.090;16.212;2022-10-26T01:12:36;1.67;;;0.67;;
15673;SDS011;7937;48.090;16.212;2022-10-26T01:36:33;3.30;;;0.60;;
15673;SDS011;7937;48.090;16.212;2022-10-26T01:39:44;2.00;;;0.40;;
15673;SDS011;7937;48.090;16.212;2022-10-26T01:42:53;1.00;;;0.60;;
15673;SDS011;7937;48.090;16.212;2022-10-26T01:45:59;3.03;;;0.50;;
15673;SDS011;7937;48.090;16.212;2022-10-26T01:49:07;1.17;;;0.47;;
15673;SDS011;7937;48.090;16.212;2022-10-26T01:52:12;0.50;;;0.30;;
15673;SDS011;7937;48.090;16.212;2022-10-26T01:58:45;0.73;;;0.50;;
15673;SDS011;7937;48.090;16.212;2022-10-26T02:02:09;3.93;;;0.60;;
15673;SDS011;7937;48.090;16.212;2022-10-26T02:05:35;1.60;;;0.67;;
15673;SDS011;7937;48.090;16.212;2022-10-26T02:08:55;0.90;;;0.60;;
15673;SDS011;7937;48.090;16.212;2022-10-26T02:19:07;0.53;;;0.53;;
15673;SDS011;7937;48.090;16.212;2022-10-26T02:25:35;0.80;;;0.50;;
15673;SDS011;7937;48.090;16.212;2022-10-26T02:28:49;2.20;;;0.70;;
15673;SDS011;7937;48.090;16.212;2022-10-26T02:31:52;0.93;;;0.70;;
15673;SDS011;7937;48.090;16.212;2022-10-26T02:34:55;1.77;;;0.50;;
15673;SDS011;7937;48.090;16.212;2022-10-26T02:38:01;2.03;;;0.80;;
15673;SDS011;7937;48.090;16.212;2022-10-26T02:41:06;0.60;;;0.50;;
15673;SDS011;7937;48.090;16.212;2022-10-26T02:44:15;1.47;;;0.70;;
15673;SDS011;7937;48.090;16.212;2022-10-26T02:47:30;2.27;;;0.60;;
15673;SDS011;7937;48.090;16.212;2022-10-26T02:50:39;1.40;;;0.70;;
15673;SDS011;7937;48.090;16.212;2022-10-26T02:53:53;1.07;;;0.60;;
15673;SDS011;7937;48.090;16.212;2022-10-26T02:57:00;0.50;;;0.50;;
15673;SDS011;7937;48.090;16.212;2022-10-26T03:00:15;0.53;;;0.53;;
15673;SDS011;7937;48.090;16.212;2022-10-26T03:03:19;0.50;;;0.30;;
15673;SDS011;7937;48.090;16.212;2022-10-26T03:06:22;0.57;;;0.57;;
15673;SDS011;7937;48.090;16.212;2022-10-26T03:09:25;1.73;;;0.77;;
15673;SDS011;7937;48.090;16.212;2022-10-26T03:12:27;1.47;;;0.50;;
15673;SDS011;7937;48.090;16.212;2022-10-26T03:15:29;3.90;;;0.93;;
15673;SDS011;7937;48.090;16.212;2022-10-26T03:18:31;0.97;;;0.70;;
15673;SDS011;7937;48.090;16.212;2022-10-26T03:21:33;2.00;;;0.77;;
15673;SDS011;7937;48.090;16.212;2022-10-26T03:24:35;1.43;;;0.60;;
15673;SDS011;7937;48.090;16.212;2022-10-26T03:27:37;1.47;;;0.80;;
15673;SDS011;7937;48.090;16.212;2022-10-26T03:30:39;2.77;;;0.80;;
15673;SDS011;7937;48.090;16.212;2022-10-26T03:33:41;1.10;;;0.60;;
15673;SDS011;7937;48.090;16.212;2022-10-26T03:36:43;1.10;;;0.80;;
15673;SDS011;7937;48.090;16.212;2022-10-26T03:39:45;1.57;;;0.70;;
15673;SDS011;7937;48.090;16.212;2022-10-26T03:42:47;4.13;;;0.80;;
15673;SDS011;7937;48.090;16.212;2022-10-26T03:45:50;1.53;;;0.70;;
15673;SDS011;7937;48.090;16.212;2022-10-26T03:48:52;3.63;;;0.90;;
15673;SDS011;7937;48.090;16.212;2022-10-26T03:51:54;1.07;;;0.80;;
15673;SDS011;7937;48.090;16.212;2022-10-26T03:54:56;3.80;;;0.90;;
15673;SDS011;7937;48.090;16.212;2022-10-26T03:57:58;1.80;;;1.27;;
15673;SDS011;7937;48.090;16.212;2022-10-26T04:01:00;2.50;;;1.10;;
15673;SDS011;7937;48.090;16.212;2022-10-26T04:04:02;1.80;;;0.90;;
15673;SDS011;7937;48.090;16.212;2022-10-26T04:07:04;0.90;;;0.80;;
15673;SDS011;7937;48.090;16.212;2022-10-26T04:10:06;1.77;;;0.77;;
15673;SDS011;7937;48.090;16.212;2022-10-26T04:13:09;1.77;;;0.77;;
15673;SDS011;7937;48.090;16.212;2022-10-26T04:16:12;3.50;;;0.80;;
15673;SDS011;7937;48.090;16.212;2022-10-26T04:19:14;1.53;;;1.00;;
15673;SDS011;7937;48.090;16.212;2022-10-26T04:22:16;1.07;;;0.80;;
15673;SDS011;7937;48.090;16.212;2022-10-26T04:25:18;2.37;;;0.90;;
15673;SDS011;7937;48.090;16.212;2022-10-26T04:28:20;0.80;;;0.80;;
15673;SDS011;7937;48.090;16.212;2022-10-26T04:31:22;1.90;;;1.00;;
15673;SDS011;7937;48.090;16.212;2022-10-26T04:34:24;0.90;;;0.80;;
15673;SDS011;7937;48.090;16.212;2022-10-26T04:37:26;1.70;;;1.00;;
15673;SDS011;7937;48.090;16.212;2022-10-26T04:40:29;0.73;;;0.73;;
15673;SDS011;7937;48.090;16.212;2022-10-26T04:43:32;4.03;;;0.90;;
15673;SDS011;7937;48.090;16.212;2022-10-26T04:46:34;2.17;;;0.90;;
15673;SDS011;7937;48.090;16.212;2022-10-26T04:49:36;1.93;;;0.80;;
15673;SDS011;7937;48.090;16.212;2022-10-26T04:52:38;1.13;;;0.90;;
15673;SDS011;7937;48.090;16.212;2022-10-26T04:55:40;1.30;;;1.00;;
15673;SDS011;7937;48.090;16.212;2022-10-26T04:58:43;1.30;;;1.00;;
15673;SDS011;7937;48.090;16.212;2022-10-26T05:01:45;2.07;;;0.93;;
15673;SDS011;7937;48.090;16.212;2022-10-26T05:04:47;1.73;;;1.00;;
15673;SDS011;7937;48.090;16.212;2022-10-26T05:07:53;1.60;;;1.03;;
15673;SDS011;7937;48.090;16.212;2022-10-26T05:10:56;2.17;;;1.00;;
15673;SDS011;7937;48.090;16.212;2022-10-26T05:13:58;1.87;;;1.00;;
15673;SDS011;7937;48.090;16.212;2022-10-26T05:17:00;3.33;;;1.50;;
15673;SDS011;7937;48.090;16.212;2022-10-26T05:20:02;1.60;;;1.07;;
15673;SDS011;7937;48.090;16.212;2022-10-26T05:23:06;2.57;;;1.50;;
15673;SDS011;7937;48.090;16.212;2022-10-26T05:26:12;1.73;;;1.00;;
15673;SDS011;7937;48.090;16.212;2022-10-26T05:29:14;3.80;;;1.10;;
15673;SDS011;7937;48.090;16.212;2022-10-26T05:32:16;3.03;;;1.00;;
15673;SDS011;7937;48.090;16.212;2022-10-26T05:35:18;1.30;;;1.10;;
15673;SDS011;7937;48.090;16.212;2022-10-26T05:38:20;3.47;;;1.23;;
15673;SDS011;7937;48.090;16.212;2022-10-26T05:41:22;2.07;;;1.13;;
15673;SDS011;7937;48.090;16.212;2022-10-26T05:44:24;1.90;;;1.00;;
15673;SDS011;7937;48.090;16.212;2022-10-26T05:47:27;2.77;;;1.47;;
15673;SDS011;7937;48.090;16.212;2022-10-26T05:50:29;1.80;;;1.20;;
15673;SDS011;7937;48.090;16.212;2022-10-26T05:53:32;1.70;;;1.27;;
15673;SDS011;7937;48.090;16.212;2022-10-26T05:56:35;4.80;;;1.50;;
15673;SDS011;7937;48.090;16.212;2022-10-26T05:59:38;2.57;;;1.20;;
15673;SDS011;7937;48.090;16.212;2022-10-26T06:06:20;3.33;;;1.10;;
15673;SDS011;7937;48.090;16.212;2022-10-26T06:09:23;3.63;;;1.33;;
15673;SDS011;7937;48.090;16.212;2022-10-26T06:12:26;1.30;;;1.00;;
15673;SDS011;7937;48.090;16.212;2022-10-26T06:15:28;2.47;;;1.10;;
15673;SDS011;7937;48.090;16.212;2022-10-26T06:19:21;2.30;;;1.03;;
15673;SDS011;7937;48.090;16.212;2022-10-26T06:29:11;3.70;;;1.20;;
15673;SDS011;7937;48.090;16.212;2022-10-26T06:32:35;1.27;;;0.90;;
15673;SDS011;7937;48.090;16.212;2022-10-26T06:38:46;2.03;;;1.13;;
15673;SDS011;7937;48.090;16.212;2022-10-26T06:41:49;1.97;;;1.53;;
15673;SDS011;7937;48.090;16.212;2022-10-26T06:44:52;1.10;;;1.00;;
15673;SDS011;7937;48.090;16.212;2022-10-26T06:47:59;1.07;;;0.83;;
15673;SDS011;7937;48.090;16.212;2022-10-26T06:51:10;1.60;;;1.30;;
15673;SDS011;7937;48.090;16.212;2022-10-26T06:54:44;1.47;;;1.10;;
15673;SDS011;7937;48.090;16.212;2022-10-26T06:57:55;1.50;;;1.30;;
15673;SDS011;7937;48.090;16.212;2022-10-26T07:00:57;1.50;;;1.40;;
15673;SDS011;7937;48.090;16.212;2022-10-26T07:04:00;1.80;;;1.47;;
15673;SDS011;7937;48.090;16.212;2022-10-26T07:07:02;3.13;;;2.00;;
15673;SDS011;7937;48.090;16.212;2022-10-26T07:10:04;2.63;;;2.23;;
15673;SDS011;7937;48.090;16.212;2022-10-26T07:13:08;2.33;;;1.60;;
15673;SDS011;7937;48.090;16.212;2022-10-26T07:16:11;2.30;;;1.83;;
15673;SDS011;7937;48.090;16.212;2022-10-26T07:19:13;2.90;;;1.77;;
15673;SDS011;7937;48.090;16.212;2022-10-26T07:22:15;3.67;;;1.70;;
15673;SDS011;7937;48.090;16.212;2022-10-26T07:25:17;3.80;;;1.60;;
15673;SDS011;7937;48.090;16.212;2022-10-26T07:28:19;2.57;;;1.70;;
15673;SDS011;7937;48.090;16.212;2022-10-26T07:31:21;2.93;;;1.80;;
15673;SDS011;7937;48.090;16.212;2022-10-26T07:34:23;3.37;;;1.67;;
15673;SDS011;7937;48.090;16.212;2022-10-26T07:37:25;6.20;;;3.37;;
15673;SDS011;7937;48.090;16.212;2022-10-26T07:40:27;3.10;;;2.60;;
15673;SDS011;7937;48.090;16.212;2022-10-26T07:43:30;4.57;;;2.40;;
15673;SDS011;7937;48.090;16.212;2022-10-26T07:46:32;5.40;;;3.20;;
15673;SDS011;7937;48.090;16.212;2022-10-26T07:49:34;4.60;;;3.20;;
15673;SDS011;7937;48.090;16.212;2022-10-26T07:52:36;4.90;;;3.37;;
15673;SDS011;7937;48.090;16.212;2022-10-26T07:55:39;4.70;;;3.40;;
15673;SDS011;7937;48.090;16.212;2022-10-26T07:58:41;6.40;;;4.07;;
15673;SDS011;7937;48.090;16.212;2022-10-26T08:01:43;5.60;;;4.63;;
15673;SDS011;7937;48.090;16.212;2022-10-26T08:04:46;6.20;;;4.40;;
15673;SDS011;7937;48.090;16.212;2022-10-26T08:07:48;6.03;;;4.47;;
15673;SDS011;7937;48.090;16.212;2022-10-26T08:10:50;5.93;;;4.90;;
15673;SDS011;7937;48.090;16.212;2022-10-26T08:13:53;7.03;;;5.03;;
15673;SDS011;7937;48.090;16.212;2022-10-26T08:16:56;7.20;;;5.07;;
15673;SDS011;7937;48.090;16.212;2022-10-26T08:19:58;5.20;;;4.70;;
15673;SDS011;7937;48.090;16.212;2022-10-26T08:23:00;7.27;;;5.20;;
15673;SDS011;7937;48.090;16.212;2022-10-26T08:26:06;6.23;;;5.03;;
15673;SDS011;7937;48.090;16.212;2022-10-26T08:29:12;9.17;;;6.97;;
15673;SDS011;7937;48.090;16.212;2022-10-26T08:32:14;9.23;;;6.87;;
15673;SDS011;7937;48.090;16.212;2022-10-26T08:35:16;12.17;;;9.27;;
15673;SDS011;7937;48.090;16.212;2022-10-26T08:38:18;11.40;;;9.57;;
15673;SDS011;7937;48.090;16.212;2022-10-26T08:41:22;11.60;;;9.93;;
15673;SDS011;7937;48.090;16.212;2022-10-26T08:44:46;14.73;;;11.60;;
15673;SDS011;7937;48.090;16.212;2022-10-26T08:47:52;14.80;;;12.43;;
15673;SDS011;7937;48.090;16.212;2022-10-26T08:51:00;18.83;;;12.17;;
15673;SDS011;7937;48.090;16.212;2022-10-26T08:54:10;19.13;;;12.77;;
15673;SDS011;7937;48.090;16.212;2022-10-26T08:57:24;19.57;;;12.67;;
15673;SDS011;7937;48.090;16.212;2022-10-26T09:00:28;17.70;;;11.57;;
15673;SDS011;7937;48.090;16.212;2022-10-26T09:03:31;21.57;;;13.53;;
15673;SDS011;7937;48.090;16.212;2022-10-26T09:10:33;24.83;;;14.33;;
15673;SDS011;7937;48.090;16.212;2022-10-26T09:13:44;26.47;;;15.17;;
15673;SDS011;7937;48.090;16.212;2022-10-26T09:20:47;28.83;;;15.60;;
15673;SDS011;7937;48.090;16.212;2022-10-26T09:30:29;23.27;;;14.13;;
15673;SDS011;7937;48.090;16.212;2022-10-26T09:33:35;22.43;;;13.77;;
15673;SDS011;7937;48.090;16.212;2022-10-26T09:36:40;29.30;;;15.53;;
15673;SDS011;7937;48.090;16.212;2022-10-26T09:39:48;24.53;;;14.63;;
15673;SDS011;7937;48.090;16.212;2022-10-26T09:43:09;24.90;;;14.87;;
15673;SDS011;7937;48.090;16.212;2022-10-26T09:46:20;25.37;;;14.73;;
15673;SDS011;7937;48.090;16.212;2022-10-26T09:49:30;22.70;;;14.07;;
15673;SDS011;7937;48.090;16.212;2022-10-26T09:52:41;24.57;;;15.70;;
15673;SDS011;7937;48.090;16.212;2022-10-26T09:55:44;21.47;;;14.17;;
15673;SDS011;7937;48.090;16.212;2022-10-26T10:05:33;21.23;;;14.23;;
15673;SDS011;7937;48.090;16.212;2022-10-26T10:09:06;23.33;;;13.57;;
15673;SDS011;7937;48.090;16.212;2022-10-26T10:12:19;22.00;;;13.53;;
15673;SDS011;7937;48.090;16.212;2022-10-26T10:15:22;23.17;;;13.50;;
15673;SDS011;7937;48.090;16.212;2022-10-26T10:18:25;17.00;;;11.67;;
15673;SDS011;7937;48.090;16.212;2022-10-26T10:21:34;16.97;;;11.67;;
15673;SDS011;7937;48.090;16.212;2022-10-26T10:24:40;16.80;;;10.97;;
15673;SDS011;7937;48.090;16.212;2022-10-26T10:27:43;20.87;;;10.27;;
15673;SDS011;7937;48.090;16.212;2022-10-26T10:30:54;21.30;;;12.20;;
15673;SDS011;7937;48.090;16.212;2022-10-26T10:34:01;16.30;;;11.10;;
15673;SDS011;7937;48.090;16.212;2022-10-26T10:37:38;21.43;;;11.50;;
15673;SDS011;7937;48.090;16.212;2022-10-26T10:40:52;15.43;;;10.77;;
15673;SDS011;7937;48.090;16.212;2022-10-26T10:47:13;15.43;;;10.23;;
15673;SDS011;7937;48.090;16.212;2022-10-26T10:50:21;15.67;;;9.60;;
15673;SDS011;7937;48.090;16.212;2022-10-26T11:03:11;15.93;;;8.60;;
15673;SDS011;7937;48.090;16.212;2022-10-26T11:06:34;13.23;;;8.73;;
15673;SDS011;7937;48.090;16.212;2022-10-26T11:09:40;15.07;;;9.83;;
15673;SDS011;7937;48.090;16.212;2022-10-26T11:13:07;16.63;;;10.30;;
15673;SDS011;7937;48.090;16.212;2022-10-26T11:16:29;17.03;;;9.63;;
15673;SDS011;7937;48.090;16.212;2022-10-26T11:19:44;15.43;;;9.40;;
15673;SDS011;7937;48.090;16.212;2022-10-26T11:25:59;15.10;;;9.40;;
15673;SDS011;7937;48.090;16.212;2022-10-26T11:32:29;18.23;;;11.00;;
15673;SDS011;7937;48.090;16.212;2022-10-26T11:35:43;19.30;;;12.70;;
15673;SDS011;7937;48.090;16.212;2022-10-26T11:39:19;15.90;;;11.83;;
15673;SDS011;7937;48.090;16.212;2022-10-26T11:42:32;16.63;;;12.33;;
15673;SDS011;7937;48.090;16.212;2022-10-26T11:45:56;15.77;;;10.63;;
15673;SDS011;7937;48.090;16.212;2022-10-26T11:49:14;16.93;;;11.40;;
15673;SDS011;7937;48.090;16.212;2022-10-26T11:52:24;16.27;;;11.03;;
15673;SDS011;7937;48.090;16.212;2022-10-26T11:55:31;16.50;;;10.67;;
15673;SDS011;7937;48.090;16.212;2022-10-26T11:58:33;15.23;;;10.03;;
15673;SDS011;7937;48.090;16.212;2022-10-26T12:01:35;11.47;;;8.63;;
15673;SDS011;7937;48.090;16.212;2022-10-26T12:04:37;15.23;;;10.00;;
15673;SDS011;7937;48.090;16.212;2022-10-26T12:07:43;15.30;;;10.03;;
15673;SDS011;7937;48.090;16.212;2022-10-26T12:11:03;12.73;;;9.10;;
15673;SDS011;7937;48.090;16.212;2022-10-26T12:17:29;11.90;;;8.23;;
15673;SDS011;7937;48.090;16.212;2022-10-26T12:27:48;13.27;;;8.07;;
15673;SDS011;7937;48.090;16.212;2022-10-26T12:30:53;13.50;;;8.33;;
15673;SDS011;7937;48.090;16.212;2022-10-26T12:37:47;12.30;;;8.73;;
15673;SDS011;7937;48.090;16.212;2022-10-26T12:44:30;14.23;;;9.70;;
15673;SDS011;7937;48.090;16.212;2022-10-26T12:50:39;17.80;;;10.10;;
15673;SDS011;7937;48.090;16.212;2022-10-26T12:53:41;14.57;;;9.47;;
15673;SDS011;7937;48.090;16.212;2022-10-26T12:56:56;14.23;;;9.33;;
15673;SDS011;7937;48.090;16.212;2022-10-26T13:00:16;17.17;;;10.93;;
15673;SDS011;7937;48.090;16.212;2022-10-26T13:03:25;17.57;;;10.47;;
15673;SDS011;7937;48.090;16.212;2022-10-26T13:06:36;13.70;;;10.70;;
15673;SDS011;7937;48.090;16.212;2022-10-26T13:09:58;17.37;;;11.50;;
15673;SDS011;7937;48.090;16.212;2022-10-26T13:13:04;17.27;;;10.97;;
15673;SDS011;7937;48.090;16.212;2022-10-26T13:16:09;16.17;;;11.40;;
15673;SDS011;7937;48.090;16.212;2022-10-26T13:22:49;18.10;;;13.03;;
15673;SDS011;7937;48.090;16.212;2022-10-26T13:26:02;18.57;;;12.87;;
15673;SDS011;7937;48.090;16.212;2022-10-26T13:29:07;18.03;;;11.43;;
15673;SDS011;7937;48.090;16.212;2022-10-26T13:32:11;19.83;;;13.17;;
15673;SDS011;7937;48.090;16.212;2022-10-26T13:35:14;15.17;;;11.47;;
15673;SDS011;7937;48.090;16.212;2022-10-26T13:38:19;18.33;;;12.90;;
15673;SDS011;7937;48.090;16.212;2022-10-26T13:41:25;17.83;;;12.57;;
15673;SDS011;7937;48.090;16.212;2022-10-26T13:47:56;22.20;;;14.20;;
15673;SDS011;7937;48.090;16.212;2022-10-26T13:51:01;20.57;;;13.50;;
15673;SDS011;7937;48.090;16.212;2022-10-26T13:54:22;21.23;;;13.50;;
15673;SDS011;7937;48.090;16.212;2022-10-26T13:57:37;17.93;;;12.90;;
15673;SDS011;7937;48.090;16.212;2022-10-26T14:04:15;16.33;;;12.13;;
15673;SDS011;7937;48.090;16.212;2022-10-26T14:07:21;15.00;;;10.70;;
15673;SDS011;7937;48.090;16.212;2022-10-26T14:10:30;16.27;;;12.37;;
15673;SDS011;7937;48.090;16.212;2022-10-26T14:13:36;14.83;;;11.37;;
15673;SDS011;7937;48.090;16.212;2022-10-26T14:16:43;17.97;;;13.10;;
15673;SDS011;7937;48.090;16.212;2022-10-26T14:19:47;17.83;;;12.10;;
15673;SDS011;7937;48.090;16.212;2022-10-26T14:22:50;13.90;;;10.77;;
15673;SDS011;7937;48.090;16.212;2022-10-26T14:25:53;22.80;;;16.20;;
15673;SDS011;7937;48.090;16.212;2022-10-26T14:29:00;16.60;;;10.93;;
15673;SDS011;7937;48.090;16.212;2022-10-26T14:32:18;16.20;;;11.33;;
15673;SDS011;7937;48.090;16.212;2022-10-26T14:35:28;16.47;;;10.47;;
15673;SDS011;7937;48.090;16.212;2022-10-26T14:38:36;16.43;;;11.43;;
15673;SDS011;7937;48.090;16.212;2022-10-26T14:41:44;17.43;;;12.63;;
15673;SDS011;7937;48.090;16.212;2022-10-26T14:44:46;17.43;;;12.00;;
15673;SDS011;7937;48.090;16.212;2022-10-26T14:47:48;17.33;;;11.27;;
15673;SDS011;7937;48.090;16.212;2022-10-26T14:51:25;23.37;;;15.60;;
15673;SDS011;7937;48.090;16.212;2022-10-26T14:54:24;20.20;;;14.03;;
15673;SDS011;7937;48.090;16.212;2022-10-26T14:57:35;20.47;;;12.97;;
15673;SDS011;7937;48.090;16.212;2022-10-26T15:00:39;18.77;;;12.70;;
15673;SDS011;7937;48.090;16.212;2022-10-26T15:03:43;20.53;;;13.67;;
15673;SDS011;7937;48.090;16.212;2022-10-26T15:06:46;17.87;;;12.77;;
15673;SDS011;7937;48.090;16.212;2022-10-26T15:09:51;19.77;;;13.13;;
15673;SDS011;7937;48.090;16.212;2022-10-26T15:12:54;16.27;;;12.57;;
15673;SDS011;7937;48.090;16.212;2022-10-26T15:15:56;21.30;;;14.47;;
15673;SDS011;7937;48.090;16.212;2022-10-26T15:19:10;17.67;;;12.93;;
15673;SDS011;7937;48.090;16.212;2022-10-26T15:22:21;18.60;;;12.07;;
15673;SDS011;7937;48.090;16.212;2022-10-26T15:25:56;18.08;;;11.79;;
15673;SDS011;7937;48.090;16.212;2022-10-26T15:29:01;17.90;;;13.40;;
15673;SDS011;7937;48.090;16.212;2022-10-26T15:32:04;18.43;;;14.20;;
15673;SDS011;7937;48.090;16.212;2022-10-26T15:38:19;17.33;;;12.73;;
15673;SDS011;7937;48.090;16.212;2022-10-26T15:41:25;19.67;;;12.93;;
15673;SDS011;7937;48.090;16.212;2022-10-26T15:44:29;16.00;;;11.20;;
15673;SDS011;7937;48.090;16.212;2022-10-26T15:47:32;15.63;;;11.47;;
15673;SDS011;7937;48.090;16.212;2022-10-26T15:50:35;15.67;;;11.60;;
15673;SDS011;7937;48.090;16.212;2022-10-26T15:53:41;14.27;;;10.97;;
15673;SDS011;7937;48.090;16.212;2022-10-26T15:56:43;16.70;;;12.23;;
15673;SDS011;7937;48.090;16.212;2022-10-26T15:59:46;18.43;;;12.93;;
15673;SDS011;7937;48.090;16.212;2022-10-26T16:02:48;15.23;;;11.10;;
15673;SDS011;7937;48.090;16.212;2022-10-26T16:05:52;17.50;;;11.93;;
15673;SDS011;7937;48.090;16.212;2022-10-26T16:08:59;21.00;;;13.87;;
15673;SDS011;7937;48.090;16.212;2022-10-26T16:12:03;17.93;;;13.33;;
15673;SDS011;7937;48.090;16.212;2022-10-26T16:15:14;16.33;;;12.63;;
15673;SDS011;7937;48.090;16.212;2022-10-26T16:18:25;15.13;;;12.80;;
15673;SDS011;7937;48.090;16.212;2022-10-26T16:21:27;17.93;;;13.13;;
15673;SDS011;7937;48.090;16.212;2022-10-26T16:24:30;19.00;;;13.93;;
15673;SDS011;7937;48.090;16.212;2022-10-26T16:27:33;16.53;;;13.60;;
15673;SDS011;7937;48.090;16.212;2022-10-26T16:30:35;14.60;;;11.40;;
15673;SDS011;7937;48.090;16.212;2022-10-26T16:33:37;14.97;;;12.17;;
15673;SDS011;7937;48.090;16.212;2022-10-26T16:36:39;17.57;;;13.87;;
15673;SDS011;7937;48.090;16.212;2022-10-26T16:39:41;19.00;;;13.30;;
15673;SDS011;7937;48.090;16.212;2022-10-26T16:42:44;17.40;;;13.20;;
15673;SDS011;7937;48.090;16.212;2022-10-26T16:45:47;17.43;;;11.77;;
15673;SDS011;7937;48.090;16.212;2022-10-26T16:48:52;14.37;;;11.80;;
15673;SDS011;7937;48.090;16.212;2022-10-26T16:51:54;17.20;;;12.33;;
15673;SDS011;7937;48.090;16.212;2022-10-26T16:54:58;14.00;;;10.60;;
15673;SDS011;7937;48.090;16.212;2022-10-26T16:58:02;15.67;;;11.77;;
15673;SDS011;7937;48.090;16.212;2022-10-26T17:01:05;18.67;;;12.87;;
15673;SDS011;7937;48.090;16.212;2022-10-26T17:04:08;17.30;;;13.03;;
15673;SDS011;7937;48.090;16.212;2022-10-26T17:07:13;20.87;;;13.40;;
15673;SDS011;7937;48.090;16.212;2022-10-26T17:10:18;16.03;;;11.17;;
15673;SDS011;7937;48.090;16.212;2022-10-26T17:13:21;15.37;;;12.67;;
15673;SDS011;7937;48.090;16.212;2022-10-26T17:16:24;16.97;;;12.57;;
15673;SDS011;7937;48.090;16.212;2022-10-26T17:19:28;13.37;;;11.73;;
15673;SDS011;7937;48.090;16.212;2022-10-26T17:22:31;16.07;;;11.93;;
15673;SDS011;7937;48.090;16.212;2022-10-26T17:25:34;17.40;;;11.97;;
15673;SDS011;7937;48.090;16.212;2022-10-26T17:28:39;17.00;;;12.37;;
15673;SDS011;7937;48.090;16.212;2022-10-26T17:31:42;13.77;;;11.23;;
15673;SDS011;7937;48.090;16.212;2022-10-26T17:34:45;17.73;;;11.57;;
15673;SDS011;7937;48.090;16.212;2022-10-26T17:37:48;16.27;;;12.17;;
15673;SDS011;7937;48.090;16.212;2022-10-26T17:40:53;13.87;;;10.60;;
15673;SDS011;7937;48.090;16.212;2022-10-26T17:44:02;15.70;;;11.77;;
15673;SDS011;7937;48.090;16.212;2022-10-26T17:47:05;15.73;;;11.10;;
15673;SDS011;7937;48.090;16.212;2022-10-26T17:50:10;13.90;;;11.13;;
15673;SDS011;7937;48.090;16.212;2022-10-26T17:53:15;14.90;;;11.23;;
15673;SDS011;7937;48.090;16.212;2022-10-26T17:56:20;15.47;;;11.10;;
15673;SDS011;7937;48.090;16.212;2022-10-26T17:59:25;12.40;;;10.53;;
15673;SDS011;7937;48.090;16.212;2022-10-26T18:02:30;17.30;;;12.07;;
15673;SDS011;7937;48.090;16.212;2022-10-26T18:05:33;16.30;;;12.50;;
15673;SDS011;7937;48.090;16.212;2022-10-26T18:08:37;20.43;;;13.47;;
15673;SDS011;7937;48.090;16.212;2022-10-26T18:11:42;15.90;;;11.33;;
15673;SDS011;7937;48.090;16.212;2022-10-26T18:14:45;18.97;;;13.30;;
15673;SDS011;7937;48.090;16.212;2022-10-26T18:17:49;15.33;;;12.07;;
15673;SDS011;7937;48.090;16.212;2022-10-26T18:21:00;20.83;;;14.60;;
15673;SDS011;7937;48.090;16.212;2022-10-26T18:24:04;15.87;;;13.30;;
15673;SDS011;7937;48.090;16.212;2022-10-26T18:27:10;16.80;;;12.20;;
15673;SDS011;7937;48.090;16.212;2022-10-26T18:30:14;14.47;;;12.27;;
15673;SDS011;7937;48.090;16.212;2022-10-26T18:33:18;15.17;;;11.87;;
15673;SDS011;7937;48.090;16.212;2022-10-26T18:36:21;17.47;;;12.07;;
15673;SDS011;7937;48.090;16.212;2022-10-26T18:39:25;16.73;;;10.97;;
15673;SDS011;7937;48.090;16.212;2022-10-26T18:42:28;17.63;;;12.17;;
15673;SDS011;7937;48.090;16.212;2022-10-26T18:45:31;17.97;;;13.33;;
15673;SDS011;7937;48.090;16.212;2022-10-26T18:48:34;18.33;;;12.87;;
15673;SDS011;7937;48.090;16.212;2022-10-26T18:51:38;19.40;;;13.73;;
15673;SDS011;7937;48.090;16.212;2022-10-26T18:54:41;14.90;;;11.77;;
15673;SDS011;7937;48.090;16.212;2022-10-26T18:57:45;15.57;;;11.80;;
15673;SDS011;7937;48.090;16.212;2022-10-26T19:00:49;16.83;;;12.47;;
15673;SDS011;7937;48.090;16.212;2022-10-26T19:04:00;15.47;;;11.63;;
15673;SDS011;7937;48.090;16.212;2022-10-26T19:07:08;18.47;;;13.03;;
15673;SDS011;7937;48.090;16.212;2022-10-26T19:10:12;18.07;;;12.23;;
15673;SDS011;7937;48.090;16.212;2022-10-26T19:13:16;16.10;;;12.13;;
15673;SDS011;7937;48.090;16.212;2022-10-26T19:16:23;18.47;;;13.23;;
15673;SDS011;7937;48.090;16.212;2022-10-26T19:19:46;18.23;;;12.07;;
15673;SDS011;7937;48.090;16.212;2022-10-26T19:22:52;19.27;;;11.93;;
15673;SDS011;7937;48.090;16.212;2022-10-26T19:26:03;20.63;;;13.77;;
15673;SDS011;7937;48.090;16.212;2022-10-26T19:29:08;18.07;;;12.33;;
15673;SDS011;7937;48.090;16.212;2022-10-26T19:32:17;16.00;;;11.77;;
15673;SDS011;7937;48.090;16.212;2022-10-26T19:35:20;21.17;;;12.60;;
15673;SDS011;7937;48.090;16.212;2022-10-26T19:38:23;19.20;;;12.23;;
15673;SDS011;7937;48.090;16.212;2022-10-26T19:41:27;15.60;;;11.07;;
15673;SDS011;7937;48.090;16.212;2022-10-26T19:44:33;18.17;;;10.87;;
15673;SDS011;7937;48.090;16.212;2022-10-26T19:47:36;13.53;;;10.33;;
15673;SDS011;7937;48.090;16.212;2022-10-26T19:50:46;13.17;;;10.27;;
15673;SDS011;7937;48.090;16.212;2022-10-26T19:54:01;14.53;;;9.10;;
15673;SDS011;7937;48.090;16.212;2022-10-26T19:57:06;14.60;;;9.37;;
15673;SDS011;7937;48.090;16.212;2022-10-26T20:00:10;13.20;;;7.60;;
15673;SDS011;7937;48.090;16.212;2022-10-26T20:03:16;13.50;;;7.93;;
15673;SDS011;7937;48.090;16.212;2022-10-26T20:06:24;10.40;;;7.70;;
15673;SDS011;7937;48.090;16.212;2022-10-26T20:09:28;8.70;;;7.00;;
15673;SDS011;7937;48.090;16.212;2022-10-26T20:12:31;8.67;;;6.00;;
15673;SDS011;7937;48.090;16.212;2022-10-26T20:15:34;9.73;;;5.80;;
15673;SDS011;7937;48.090;16.212;2022-10-26T20:18:38;8.77;;;5.30;;
15673;SDS011;7937;48.090;16.212;2022-10-26T20:21:52;6.30;;;4.70;;
15673;SDS011;7937;48.090;16.212;2022-10-26T20:24:55;6.17;;;3.87;;
15673;SDS011;7937;48.090;16.212;2022-10-26T20:28:01;9.03;;;3.07;;
15673;SDS011;7937;48.090;16.212;2022-10-26T20:31:11;7.10;;;3.83;;